sensor_id;sensor_type;location;lat;lon;timestamp;P1;durP1;ratioP1;P2;durP2;ratioP2
43504;SDS011;29098;48.184;16.298;2022-08-30T00:00:27;11.70;;;7.35;;
43504;SDS011;29098;48.184;16.298;2022-08-30T00:03:12;10.82;;;6.30;;
43504;SDS011;29098;48.184;16.298;2022-08-30T00:05:38;11.18;;;6.47;;
43504;SDS011;29098;48.184;16.298;2022-08-30T00:08:05;9.30;;;6.65;;
43504;SDS011;29098;48.184;16.298;2022-08-30T00:10:31;9.50;;;5.95;;
43504;SDS011;29098;48.184;16.298;2022-08-30T00:12:57;12.23;;;7.13;;
43504;SDS011;29098;48.184;16.298;2022-08-30T00:15:23;14.82;;;8.82;;
43504;SDS011;29098;48.184;16.298;2022-08-30T00:17:50;9.50;;;6.60;;
43504;SDS011;29098;48.184;16.298;2022-08-30T00:20:17;11.32;;;7.18;;
43504;SDS011;29098;48.184;16.298;2022-08-30T00:22:46;10.98;;;7.55;;
43504;SDS011;29098;48.184;16.298;2022-08-30T00:25:12;12.32;;;7.47;;
43504;SDS011;29098;48.184;16.298;2022-08-30T00:27:39;11.90;;;7.28;;
43504;SDS011;29098;48.184;16.298;2022-08-30T00:30:06;13.43;;;6.68;;
43504;SDS011;29098;48.184;16.298;2022-08-30T00:32:32;11.93;;;7.63;;
43504;SDS011;29098;48.184;16.298;2022-08-30T00:34:58;8.52;;;6.53;;
43504;SDS011;29098;48.184;16.298;2022-08-30T00:37:23;17.27;;;6.35;;
43504;SDS011;29098;48.184;16.298;2022-08-30T00:39:49;10.52;;;6.75;;
43504;SDS011;29098;48.184;16.298;2022-08-30T00:42:15;14.43;;;7.00;;
43504;SDS011;29098;48.184;16.298;2022-08-30T00:44:43;11.43;;;6.63;;
43504;SDS011;29098;48.184;16.298;2022-08-30T00:47:09;12.30;;;6.35;;
43504;SDS011;29098;48.184;16.298;2022-08-30T00:49:35;11.15;;;7.00;;
43504;SDS011;29098;48.184;16.298;2022-08-30T00:52:03;9.52;;;7.20;;
43504;SDS011;29098;48.184;16.298;2022-08-30T00:54:31;9.70;;;6.53;;
43504;SDS011;29098;48.184;16.298;2022-08-30T00:57:00;9.48;;;6.95;;
43504;SDS011;29098;48.184;16.298;2022-08-30T00:59:26;10.15;;;7.03;;
43504;SDS011;29098;48.184;16.298;2022-08-30T01:01:53;11.68;;;7.25;;
43504;SDS011;29098;48.184;16.298;2022-08-30T01:04:19;10.80;;;7.38;;
43504;SDS011;29098;48.184;16.298;2022-08-30T01:06:48;10.18;;;6.43;;
43504;SDS011;29098;48.184;16.298;2022-08-30T01:09:14;14.15;;;6.25;;
43504;SDS011;29098;48.184;16.298;2022-08-30T01:11:40;11.23;;;6.88;;
43504;SDS011;29098;48.184;16.298;2022-08-30T01:14:09;9.52;;;6.40;;
43504;SDS011;29098;48.184;16.298;2022-08-30T01:16:36;13.80;;;7.53;;
43504;SDS011;29098;48.184;16.298;2022-08-30T01:19:03;9.43;;;6.65;;
43504;SDS011;29098;48.184;16.298;2022-08-30T01:24:18;10.48;;;6.53;;
43504;SDS011;29098;48.184;16.298;2022-08-30T01:26:45;9.93;;;6.75;;
43504;SDS011;29098;48.184;16.298;2022-08-30T01:29:12;10.75;;;6.82;;
43504;SDS011;29098;48.184;16.298;2022-08-30T01:31:41;8.95;;;6.50;;
43504;SDS011;29098;48.184;16.298;2022-08-30T01:34:07;10.45;;;7.00;;
43504;SDS011;29098;48.184;16.298;2022-08-30T01:36:34;11.82;;;7.25;;
43504;SDS011;29098;48.184;16.298;2022-08-30T01:39:03;13.40;;;6.95;;
43504;SDS011;29098;48.184;16.298;2022-08-30T01:41:33;14.77;;;8.18;;
43504;SDS011;29098;48.184;16.298;2022-08-30T01:44:00;12.70;;;7.07;;
43504;SDS011;29098;48.184;16.298;2022-08-30T01:46:31;10.27;;;6.25;;
43504;SDS011;29098;48.184;16.298;2022-08-30T01:49:03;12.18;;;7.00;;
43504;SDS011;29098;48.184;16.298;2022-08-30T01:51:31;10.68;;;6.57;;
43504;SDS011;29098;48.184;16.298;2022-08-30T01:53:56;10.05;;;6.80;;
43504;SDS011;29098;48.184;16.298;2022-08-30T01:56:23;11.90;;;6.90;;
43504;SDS011;29098;48.184;16.298;2022-08-30T01:58:50;11.95;;;7.07;;
43504;SDS011;29098;48.184;16.298;2022-08-30T02:01:17;9.68;;;6.53;;
43504;SDS011;29098;48.184;16.298;2022-08-30T02:03:46;11.07;;;7.45;;
43504;SDS011;29098;48.184;16.298;2022-08-30T02:06:13;10.02;;;6.43;;
43504;SDS011;29098;48.184;16.298;2022-08-30T02:08:43;10.68;;;6.47;;
43504;SDS011;29098;48.184;16.298;2022-08-30T02:11:09;9.43;;;6.85;;
43504;SDS011;29098;48.184;16.298;2022-08-30T02:13:36;13.60;;;7.43;;
43504;SDS011;29098;48.184;16.298;2022-08-30T02:16:03;10.13;;;7.13;;
43504;SDS011;29098;48.184;16.298;2022-08-30T02:18:31;10.32;;;6.30;;
43504;SDS011;29098;48.184;16.298;2022-08-30T02:20:58;10.35;;;7.05;;
43504;SDS011;29098;48.184;16.298;2022-08-30T02:23:25;10.15;;;7.15;;
43504;SDS011;29098;48.184;16.298;2022-08-30T02:25:50;12.15;;;6.95;;
43504;SDS011;29098;48.184;16.298;2022-08-30T02:28:16;9.27;;;6.57;;
43504;SDS011;29098;48.184;16.298;2022-08-30T02:30:43;10.13;;;6.47;;
43504;SDS011;29098;48.184;16.298;2022-08-30T02:33:10;11.10;;;6.28;;
43504;SDS011;29098;48.184;16.298;2022-08-30T02:35:35;10.52;;;7.45;;
43504;SDS011;29098;48.184;16.298;2022-08-30T02:38:01;10.55;;;6.20;;
43504;SDS011;29098;48.184;16.298;2022-08-30T02:40:27;12.10;;;6.80;;
43504;SDS011;29098;48.184;16.298;2022-08-30T02:42:52;12.07;;;7.30;;
43504;SDS011;29098;48.184;16.298;2022-08-30T02:45:18;11.60;;;7.25;;
43504;SDS011;29098;48.184;16.298;2022-08-30T02:47:43;13.10;;;7.22;;
43504;SDS011;29098;48.184;16.298;2022-08-30T02:50:09;10.10;;;6.10;;
43504;SDS011;29098;48.184;16.298;2022-08-30T02:52:36;11.30;;;7.05;;
43504;SDS011;29098;48.184;16.298;2022-08-30T02:55:03;12.93;;;7.10;;
43504;SDS011;29098;48.184;16.298;2022-08-30T02:57:29;10.65;;;7.25;;
43504;SDS011;29098;48.184;16.298;2022-08-30T02:59:54;14.50;;;7.35;;
43504;SDS011;29098;48.184;16.298;2022-08-30T03:02:20;12.05;;;7.18;;
43504;SDS011;29098;48.184;16.298;2022-08-30T03:04:46;13.25;;;7.10;;
43504;SDS011;29098;48.184;16.298;2022-08-30T03:07:13;10.15;;;6.15;;
43504;SDS011;29098;48.184;16.298;2022-08-30T03:09:39;9.13;;;6.20;;
43504;SDS011;29098;48.184;16.298;2022-08-30T03:12:06;11.73;;;7.63;;
43504;SDS011;29098;48.184;16.298;2022-08-30T03:14:33;12.00;;;7.32;;
43504;SDS011;29098;48.184;16.298;2022-08-30T03:17:00;12.15;;;6.72;;
43504;SDS011;29098;48.184;16.298;2022-08-30T03:19:27;13.38;;;7.22;;
43504;SDS011;29098;48.184;16.298;2022-08-30T03:21:52;12.48;;;7.35;;
43504;SDS011;29098;48.184;16.298;2022-08-30T03:24:18;11.38;;;7.20;;
43504;SDS011;29098;48.184;16.298;2022-08-30T03:26:44;11.25;;;7.78;;
43504;SDS011;29098;48.184;16.298;2022-08-30T03:29:10;9.43;;;7.03;;
43504;SDS011;29098;48.184;16.298;2022-08-30T03:31:35;10.93;;;6.93;;
43504;SDS011;29098;48.184;16.298;2022-08-30T03:34:01;10.02;;;7.05;;
43504;SDS011;29098;48.184;16.298;2022-08-30T03:36:27;10.27;;;7.32;;
43504;SDS011;29098;48.184;16.298;2022-08-30T03:38:52;11.38;;;6.28;;
43504;SDS011;29098;48.184;16.298;2022-08-30T03:41:18;8.50;;;6.53;;
43504;SDS011;29098;48.184;16.298;2022-08-30T03:43:43;10.98;;;6.40;;
43504;SDS011;29098;48.184;16.298;2022-08-30T03:46:11;11.55;;;6.85;;
43504;SDS011;29098;48.184;16.298;2022-08-30T03:48:38;13.68;;;7.10;;
43504;SDS011;29098;48.184;16.298;2022-08-30T03:51:04;11.82;;;5.88;;
43504;SDS011;29098;48.184;16.298;2022-08-30T03:53:29;11.00;;;7.35;;
43504;SDS011;29098;48.184;16.298;2022-08-30T03:55:55;13.82;;;7.03;;
43504;SDS011;29098;48.184;16.298;2022-08-30T03:58:20;11.07;;;7.20;;
43504;SDS011;29098;48.184;16.298;2022-08-30T04:00:46;10.63;;;6.68;;
43504;SDS011;29098;48.184;16.298;2022-08-30T04:03:11;12.23;;;7.25;;
43504;SDS011;29098;48.184;16.298;2022-08-30T04:05:37;11.60;;;7.53;;
43504;SDS011;29098;48.184;16.298;2022-08-30T04:08:02;12.55;;;6.88;;
43504;SDS011;29098;48.184;16.298;2022-08-30T04:10:28;15.70;;;7.85;;
43504;SDS011;29098;48.184;16.298;2022-08-30T04:12:53;12.43;;;8.18;;
43504;SDS011;29098;48.184;16.298;2022-08-30T04:15:19;13.63;;;7.10;;
43504;SDS011;29098;48.184;16.298;2022-08-30T04:17:45;9.73;;;7.03;;
43504;SDS011;29098;48.184;16.298;2022-08-30T04:20:11;12.07;;;6.75;;
43504;SDS011;29098;48.184;16.298;2022-08-30T04:22:37;9.85;;;6.30;;
43504;SDS011;29098;48.184;16.298;2022-08-30T04:25:03;10.85;;;6.93;;
43504;SDS011;29098;48.184;16.298;2022-08-30T04:27:29;14.60;;;6.78;;
43504;SDS011;29098;48.184;16.298;2022-08-30T04:29:54;9.43;;;6.63;;
43504;SDS011;29098;48.184;16.298;2022-08-30T04:32:20;11.13;;;7.40;;
43504;SDS011;29098;48.184;16.298;2022-08-30T04:34:45;13.43;;;7.40;;
43504;SDS011;29098;48.184;16.298;2022-08-30T04:37:11;11.25;;;7.45;;
43504;SDS011;29098;48.184;16.298;2022-08-30T04:39:37;11.43;;;7.07;;
43504;SDS011;29098;48.184;16.298;2022-08-30T04:42:03;10.50;;;6.80;;
43504;SDS011;29098;48.184;16.298;2022-08-30T04:44:29;9.73;;;6.00;;
43504;SDS011;29098;48.184;16.298;2022-08-30T04:46:56;9.38;;;7.13;;
43504;SDS011;29098;48.184;16.298;2022-08-30T04:49:21;8.73;;;6.30;;
43504;SDS011;29098;48.184;16.298;2022-08-30T04:51:46;10.55;;;6.03;;
43504;SDS011;29098;48.184;16.298;2022-08-30T04:54:12;10.85;;;6.60;;
43504;SDS011;29098;48.184;16.298;2022-08-30T04:56:37;11.20;;;6.78;;
43504;SDS011;29098;48.184;16.298;2022-08-30T04:59:03;9.73;;;6.78;;
43504;SDS011;29098;48.184;16.298;2022-08-30T05:01:29;10.20;;;7.35;;
43504;SDS011;29098;48.184;16.298;2022-08-30T05:03:56;12.18;;;6.35;;
43504;SDS011;29098;48.184;16.298;2022-08-30T05:06:23;10.68;;;6.50;;
43504;SDS011;29098;48.184;16.298;2022-08-30T05:08:51;12.07;;;7.70;;
43504;SDS011;29098;48.184;16.298;2022-08-30T05:11:18;11.93;;;6.07;;
43504;SDS011;29098;48.184;16.298;2022-08-30T05:13:43;11.25;;;6.07;;
43504;SDS011;29098;48.184;16.298;2022-08-30T05:16:09;11.15;;;7.18;;
43504;SDS011;29098;48.184;16.298;2022-08-30T05:18:35;10.85;;;6.93;;
43504;SDS011;29098;48.184;16.298;2022-08-30T05:21:02;9.68;;;6.63;;
43504;SDS011;29098;48.184;16.298;2022-08-30T05:23:28;9.95;;;6.88;;
43504;SDS011;29098;48.184;16.298;2022-08-30T05:25:53;12.43;;;6.18;;
43504;SDS011;29098;48.184;16.298;2022-08-30T05:28:19;11.45;;;6.57;;
43504;SDS011;29098;48.184;16.298;2022-08-30T05:30:44;10.32;;;5.95;;
43504;SDS011;29098;48.184;16.298;2022-08-30T05:33:09;8.27;;;6.05;;
43504;SDS011;29098;48.184;16.298;2022-08-30T05:35:35;12.63;;;6.88;;
43504;SDS011;29098;48.184;16.298;2022-08-30T05:38:00;9.88;;;5.90;;
43504;SDS011;29098;48.184;16.298;2022-08-30T05:40:26;12.10;;;7.18;;
43504;SDS011;29098;48.184;16.298;2022-08-30T05:42:52;12.40;;;6.90;;
43504;SDS011;29098;48.184;16.298;2022-08-30T05:45:17;14.73;;;6.93;;
43504;SDS011;29098;48.184;16.298;2022-08-30T05:47:42;10.25;;;5.75;;
43504;SDS011;29098;48.184;16.298;2022-08-30T05:50:08;12.63;;;6.90;;
43504;SDS011;29098;48.184;16.298;2022-08-30T05:52:35;10.27;;;6.47;;
43504;SDS011;29098;48.184;16.298;2022-08-30T05:55:01;14.95;;;7.13;;
43504;SDS011;29098;48.184;16.298;2022-08-30T05:57:30;12.27;;;7.13;;
43504;SDS011;29098;48.184;16.298;2022-08-30T05:59:58;9.30;;;6.05;;
43504;SDS011;29098;48.184;16.298;2022-08-30T06:02:24;11.80;;;7.00;;
43504;SDS011;29098;48.184;16.298;2022-08-30T06:04:50;12.20;;;6.70;;
43504;SDS011;29098;48.184;16.298;2022-08-30T06:07:15;10.45;;;6.93;;
43504;SDS011;29098;48.184;16.298;2022-08-30T06:09:40;10.73;;;6.55;;
43504;SDS011;29098;48.184;16.298;2022-08-30T06:12:06;14.57;;;6.38;;
43504;SDS011;29098;48.184;16.298;2022-08-30T06:14:31;12.70;;;6.40;;
43504;SDS011;29098;48.184;16.298;2022-08-30T06:16:57;7.88;;;5.63;;
43504;SDS011;29098;48.184;16.298;2022-08-30T06:19:22;12.75;;;6.22;;
43504;SDS011;29098;48.184;16.298;2022-08-30T06:21:48;12.65;;;6.35;;
43504;SDS011;29098;48.184;16.298;2022-08-30T06:24:15;9.25;;;5.45;;
43504;SDS011;29098;48.184;16.298;2022-08-30T06:26:42;11.75;;;6.30;;
43504;SDS011;29098;48.184;16.298;2022-08-30T06:29:10;12.73;;;6.50;;
43504;SDS011;29098;48.184;16.298;2022-08-30T06:31:38;9.40;;;5.70;;
43504;SDS011;29098;48.184;16.298;2022-08-30T06:34:05;9.75;;;5.57;;
43504;SDS011;29098;48.184;16.298;2022-08-30T06:36:31;11.27;;;5.38;;
43504;SDS011;29098;48.184;16.298;2022-08-30T06:38:57;11.77;;;5.97;;
43504;SDS011;29098;48.184;16.298;2022-08-30T06:41:27;13.85;;;6.65;;
43504;SDS011;29098;48.184;16.298;2022-08-30T06:43:55;9.55;;;5.43;;
43504;SDS011;29098;48.184;16.298;2022-08-30T06:46:23;12.25;;;5.78;;
43504;SDS011;29098;48.184;16.298;2022-08-30T06:48:50;7.78;;;4.95;;
43504;SDS011;29098;48.184;16.298;2022-08-30T06:51:20;11.13;;;6.47;;
43504;SDS011;29098;48.184;16.298;2022-08-30T06:53:47;12.43;;;5.72;;
43504;SDS011;29098;48.184;16.298;2022-08-30T06:56:14;10.45;;;5.95;;
43504;SDS011;29098;48.184;16.298;2022-08-30T06:58:40;9.63;;;5.63;;
43504;SDS011;29098;48.184;16.298;2022-08-30T07:01:06;10.00;;;4.78;;
43504;SDS011;29098;48.184;16.298;2022-08-30T07:03:35;8.57;;;4.68;;
43504;SDS011;29098;48.184;16.298;2022-08-30T07:06:01;9.18;;;5.38;;
43504;SDS011;29098;48.184;16.298;2022-08-30T07:08:27;10.27;;;5.10;;
43504;SDS011;29098;48.184;16.298;2022-08-30T07:10:53;11.05;;;5.68;;
43504;SDS011;29098;48.184;16.298;2022-08-30T07:13:19;7.85;;;5.18;;
43504;SDS011;29098;48.184;16.298;2022-08-30T07:15:46;12.60;;;5.90;;
43504;SDS011;29098;48.184;16.298;2022-08-30T07:18:12;12.75;;;5.47;;
43504;SDS011;29098;48.184;16.298;2022-08-30T07:20:57;8.43;;;4.50;;
43504;SDS011;29098;48.184;16.298;2022-08-30T07:23:29;9.82;;;4.70;;
43504;SDS011;29098;48.184;16.298;2022-08-30T07:25:54;11.23;;;5.03;;
43504;SDS011;29098;48.184;16.298;2022-08-30T07:28:20;8.32;;;4.55;;
43504;SDS011;29098;48.184;16.298;2022-08-30T07:30:46;6.15;;;4.22;;
43504;SDS011;29098;48.184;16.298;2022-08-30T07:33:11;9.50;;;4.63;;
43504;SDS011;29098;48.184;16.298;2022-08-30T07:35:37;8.77;;;4.80;;
43504;SDS011;29098;48.184;16.298;2022-08-30T07:38:02;8.82;;;4.40;;
43504;SDS011;29098;48.184;16.298;2022-08-30T07:40:28;10.18;;;5.35;;
43504;SDS011;29098;48.184;16.298;2022-08-30T07:42:54;8.85;;;4.15;;
43504;SDS011;29098;48.184;16.298;2022-08-30T07:45:20;6.18;;;4.22;;
43504;SDS011;29098;48.184;16.298;2022-08-30T07:47:45;9.82;;;3.92;;
43504;SDS011;29098;48.184;16.298;2022-08-30T07:50:11;7.82;;;3.63;;
43504;SDS011;29098;48.184;16.298;2022-08-30T07:52:37;7.68;;;3.83;;
43504;SDS011;29098;48.184;16.298;2022-08-30T07:55:02;7.53;;;4.22;;
43504;SDS011;29098;48.184;16.298;2022-08-30T07:57:29;7.78;;;3.60;;
43504;SDS011;29098;48.184;16.298;2022-08-30T07:59:57;10.20;;;4.70;;
43504;SDS011;29098;48.184;16.298;2022-08-30T08:02:23;7.30;;;4.03;;
43504;SDS011;29098;48.184;16.298;2022-08-30T08:04:48;6.88;;;4.05;;
43504;SDS011;29098;48.184;16.298;2022-08-30T08:07:14;8.70;;;4.50;;
43504;SDS011;29098;48.184;16.298;2022-08-30T08:09:40;9.55;;;4.35;;
43504;SDS011;29098;48.184;16.298;2022-08-30T08:12:05;8.40;;;3.80;;
43504;SDS011;29098;48.184;16.298;2022-08-30T08:14:32;8.40;;;4.43;;
43504;SDS011;29098;48.184;16.298;2022-08-30T08:16:58;8.50;;;4.10;;
43504;SDS011;29098;48.184;16.298;2022-08-30T08:19:24;9.15;;;4.60;;
43504;SDS011;29098;48.184;16.298;2022-08-30T08:21:50;9.38;;;3.75;;
43504;SDS011;29098;48.184;16.298;2022-08-30T08:24:20;8.13;;;4.22;;
43504;SDS011;29098;48.184;16.298;2022-08-30T08:26:46;7.25;;;4.28;;
43504;SDS011;29098;48.184;16.298;2022-08-30T08:29:12;8.48;;;3.90;;
43504;SDS011;29098;48.184;16.298;2022-08-30T08:31:38;12.90;;;5.03;;
43504;SDS011;29098;48.184;16.298;2022-08-30T08:34:05;7.63;;;3.97;;
43504;SDS011;29098;48.184;16.298;2022-08-30T08:36:31;13.50;;;4.57;;
43504;SDS011;29098;48.184;16.298;2022-08-30T08:38:59;13.60;;;5.68;;
43504;SDS011;29098;48.184;16.298;2022-08-30T08:44:13;7.30;;;4.23;;
43504;SDS011;29098;48.184;16.298;2022-08-30T08:46:45;8.15;;;3.80;;
43504;SDS011;29098;48.184;16.298;2022-08-30T08:49:20;5.95;;;3.58;;
43504;SDS011;29098;48.184;16.298;2022-08-30T08:51:46;7.88;;;3.65;;
43504;SDS011;29098;48.184;16.298;2022-08-30T08:54:46;6.70;;;3.40;;
43504;SDS011;29098;48.184;16.298;2022-08-30T08:57:15;9.77;;;3.40;;
43504;SDS011;29098;48.184;16.298;2022-08-30T08:59:41;5.13;;;2.90;;
43504;SDS011;29098;48.184;16.298;2022-08-30T09:02:18;6.95;;;3.58;;
43504;SDS011;29098;48.184;16.298;2022-08-30T09:04:48;5.95;;;2.83;;
43504;SDS011;29098;48.184;16.298;2022-08-30T09:07:23;8.80;;;3.20;;
43504;SDS011;29098;48.184;16.298;2022-08-30T09:09:50;9.10;;;3.50;;
43504;SDS011;29098;48.184;16.298;2022-08-30T09:12:16;7.35;;;3.13;;
43504;SDS011;29098;48.184;16.298;2022-08-30T09:14:45;6.40;;;3.05;;
43504;SDS011;29098;48.184;16.298;2022-08-30T09:17:16;6.18;;;2.97;;
43504;SDS011;29098;48.184;16.298;2022-08-30T09:22:37;8.45;;;3.17;;
43504;SDS011;29098;48.184;16.298;2022-08-30T09:25:07;7.25;;;2.55;;
43504;SDS011;29098;48.184;16.298;2022-08-30T09:27:40;6.28;;;3.08;;
43504;SDS011;29098;48.184;16.298;2022-08-30T09:30:09;6.28;;;3.08;;
43504;SDS011;29098;48.184;16.298;2022-08-30T09:32:42;7.00;;;3.05;;
43504;SDS011;29098;48.184;16.298;2022-08-30T09:35:18;6.53;;;3.10;;
43504;SDS011;29098;48.184;16.298;2022-08-30T09:37:55;8.27;;;2.83;;
43504;SDS011;29098;48.184;16.298;2022-08-30T09:40:27;8.48;;;3.42;;
43504;SDS011;29098;48.184;16.298;2022-08-30T09:43:01;7.53;;;3.42;;
43504;SDS011;29098;48.184;16.298;2022-08-30T09:45:34;6.50;;;2.67;;
43504;SDS011;29098;48.184;16.298;2022-08-30T09:48:47;7.50;;;3.53;;
43504;SDS011;29098;48.184;16.298;2022-08-30T09:50:55;7.28;;;3.00;;
43504;SDS011;29098;48.184;16.298;2022-08-30T09:53:24;10.85;;;3.28;;
43504;SDS011;29098;48.184;16.298;2022-08-30T09:55:59;6.80;;;2.95;;
43504;SDS011;29098;48.184;16.298;2022-08-30T09:58:38;7.18;;;3.22;;
43504;SDS011;29098;48.184;16.298;2022-08-30T10:01:23;6.13;;;3.28;;
43504;SDS011;29098;48.184;16.298;2022-08-30T10:04:00;6.60;;;3.17;;
43504;SDS011;29098;48.184;16.298;2022-08-30T10:06:34;12.18;;;3.58;;
43504;SDS011;29098;48.184;16.298;2022-08-30T10:14:44;8.90;;;3.50;;
43504;SDS011;29098;48.184;16.298;2022-08-30T10:27:57;10.65;;;4.72;;
43504;SDS011;29098;48.184;16.298;2022-08-30T10:30:27;8.38;;;3.50;;
43504;SDS011;29098;48.184;16.298;2022-08-30T10:36:02;7.65;;;3.35;;
43504;SDS011;29098;48.184;16.298;2022-08-30T10:38:38;6.47;;;3.30;;
43504;SDS011;29098;48.184;16.298;2022-08-30T10:49:00;13.43;;;3.58;;
43504;SDS011;29098;48.184;16.298;2022-08-30T10:51:32;9.40;;;3.88;;
43504;SDS011;29098;48.184;16.298;2022-08-30T10:57:11;6.03;;;2.85;;
43504;SDS011;29098;48.184;16.298;2022-08-30T10:59:37;8.23;;;3.10;;
43504;SDS011;29098;48.184;16.298;2022-08-30T11:02:15;8.40;;;3.45;;
43504;SDS011;29098;48.184;16.298;2022-08-30T11:07:46;8.35;;;3.38;;
43504;SDS011;29098;48.184;16.298;2022-08-30T11:13:05;8.18;;;2.58;;
43504;SDS011;29098;48.184;16.298;2022-08-30T11:15:36;8.27;;;2.92;;
43504;SDS011;29098;48.184;16.298;2022-08-30T11:18:18;8.40;;;2.80;;
43504;SDS011;29098;48.184;16.298;2022-08-30T11:20:45;5.88;;;2.45;;
43504;SDS011;29098;48.184;16.298;2022-08-30T11:25:47;6.93;;;2.85;;
43504;SDS011;29098;48.184;16.298;2022-08-30T11:28:51;3.92;;;2.47;;
43504;SDS011;29098;48.184;16.298;2022-08-30T11:33:47;6.03;;;2.60;;
43504;SDS011;29098;48.184;16.298;2022-08-30T11:39:10;4.95;;;2.50;;
43504;SDS011;29098;48.184;16.298;2022-08-30T11:42:10;4.65;;;2.17;;
43504;SDS011;29098;48.184;16.298;2022-08-30T11:44:36;4.65;;;2.35;;
43504;SDS011;29098;48.184;16.298;2022-08-30T11:47:17;5.55;;;2.58;;
43504;SDS011;29098;48.184;16.298;2022-08-30T11:50:14;4.88;;;2.45;;
43504;SDS011;29098;48.184;16.298;2022-08-30T11:53:05;5.60;;;2.45;;
43504;SDS011;29098;48.184;16.298;2022-08-30T12:00:48;5.00;;;2.60;;
43504;SDS011;29098;48.184;16.298;2022-08-30T12:03:38;4.07;;;2.38;;
43504;SDS011;29098;48.184;16.298;2022-08-30T12:06:05;6.85;;;2.40;;
43504;SDS011;29098;48.184;16.298;2022-08-30T12:11:02;8.65;;;2.60;;
43504;SDS011;29098;48.184;16.298;2022-08-30T12:18:36;5.13;;;2.83;;
43504;SDS011;29098;48.184;16.298;2022-08-30T12:21:24;3.65;;;2.08;;
43504;SDS011;29098;48.184;16.298;2022-08-30T12:26:49;5.07;;;2.42;;
43504;SDS011;29098;48.184;16.298;2022-08-30T12:29:18;7.28;;;2.80;;
43504;SDS011;29098;48.184;16.298;2022-08-30T12:31:51;6.35;;;2.92;;
43504;SDS011;29098;48.184;16.298;2022-08-30T12:36:52;7.85;;;2.67;;
43504;SDS011;29098;48.184;16.298;2022-08-30T12:39:27;4.97;;;2.70;;
43504;SDS011;29098;48.184;16.298;2022-08-30T12:41:54;7.55;;;2.40;;
43504;SDS011;29098;48.184;16.298;2022-08-30T12:44:23;5.43;;;2.50;;
43504;SDS011;29098;48.184;16.298;2022-08-30T12:46:52;3.30;;;2.08;;
43504;SDS011;29098;48.184;16.298;2022-08-30T12:49:23;4.10;;;2.25;;
43504;SDS011;29098;48.184;16.298;2022-08-30T12:51:51;4.20;;;2.47;;
43504;SDS011;29098;48.184;16.298;2022-08-30T12:54:19;7.45;;;2.55;;
43504;SDS011;29098;48.184;16.298;2022-08-30T12:56:48;6.65;;;2.58;;
43504;SDS011;29098;48.184;16.298;2022-08-30T13:02:22;4.75;;;2.28;;
43504;SDS011;29098;48.184;16.298;2022-08-30T13:04:50;3.97;;;2.28;;
43504;SDS011;29098;48.184;16.298;2022-08-30T13:10:08;8.68;;;2.88;;
43504;SDS011;29098;48.184;16.298;2022-08-30T13:12:40;4.63;;;2.55;;
43504;SDS011;29098;48.184;16.298;2022-08-30T13:15:27;6.13;;;2.60;;
43504;SDS011;29098;48.184;16.298;2022-08-30T13:21:07;7.57;;;2.75;;
43504;SDS011;29098;48.184;16.298;2022-08-30T13:23:49;4.10;;;2.38;;
43504;SDS011;29098;48.184;16.298;2022-08-30T13:26:17;9.10;;;3.60;;
43504;SDS011;29098;48.184;16.298;2022-08-30T13:28:47;5.93;;;2.92;;
43504;SDS011;29098;48.184;16.298;2022-08-30T13:31:13;5.38;;;2.50;;
43504;SDS011;29098;48.184;16.298;2022-08-30T13:33:38;5.82;;;3.10;;
43504;SDS011;29098;48.184;16.298;2022-08-30T13:36:04;5.85;;;2.70;;
43504;SDS011;29098;48.184;16.298;2022-08-30T13:38:29;8.43;;;2.55;;
43504;SDS011;29098;48.184;16.298;2022-08-30T13:40:55;5.47;;;2.58;;
43504;SDS011;29098;48.184;16.298;2022-08-30T13:43:20;6.68;;;2.45;;
43504;SDS011;29098;48.184;16.298;2022-08-30T13:45:46;4.55;;;2.17;;
43504;SDS011;29098;48.184;16.298;2022-08-30T13:48:12;7.93;;;3.08;;
43504;SDS011;29098;48.184;16.298;2022-08-30T13:50:39;4.88;;;2.50;;
43504;SDS011;29098;48.184;16.298;2022-08-30T13:53:05;4.72;;;2.70;;
43504;SDS011;29098;48.184;16.298;2022-08-30T13:55:32;4.22;;;2.33;;
43504;SDS011;29098;48.184;16.298;2022-08-30T13:57:58;5.18;;;2.65;;
43504;SDS011;29098;48.184;16.298;2022-08-30T14:00:24;5.70;;;2.53;;
43504;SDS011;29098;48.184;16.298;2022-08-30T14:02:50;5.53;;;2.35;;
43504;SDS011;29098;48.184;16.298;2022-08-30T14:05:20;7.15;;;2.90;;
43504;SDS011;29098;48.184;16.298;2022-08-30T14:07:46;9.20;;;3.22;;
43504;SDS011;29098;48.184;16.298;2022-08-30T14:10:11;4.85;;;2.38;;
43504;SDS011;29098;48.184;16.298;2022-08-30T14:12:38;6.35;;;2.33;;
43504;SDS011;29098;48.184;16.298;2022-08-30T14:15:04;5.13;;;2.35;;
43504;SDS011;29098;48.184;16.298;2022-08-30T14:17:30;6.88;;;2.83;;
43504;SDS011;29098;48.184;16.298;2022-08-30T14:19:56;3.70;;;2.38;;
43504;SDS011;29098;48.184;16.298;2022-08-30T14:22:22;4.25;;;2.20;;
43504;SDS011;29098;48.184;16.298;2022-08-30T14:24:47;5.78;;;2.55;;
43504;SDS011;29098;48.184;16.298;2022-08-30T14:27:13;5.53;;;2.70;;
43504;SDS011;29098;48.184;16.298;2022-08-30T14:29:38;5.00;;;2.42;;
43504;SDS011;29098;48.184;16.298;2022-08-30T14:32:04;5.18;;;2.47;;
43504;SDS011;29098;48.184;16.298;2022-08-30T14:34:29;6.20;;;2.40;;
43504;SDS011;29098;48.184;16.298;2022-08-30T14:36:55;4.28;;;1.90;;
43504;SDS011;29098;48.184;16.298;2022-08-30T14:39:21;7.40;;;2.47;;
43504;SDS011;29098;48.184;16.298;2022-08-30T14:41:48;6.97;;;2.40;;
43504;SDS011;29098;48.184;16.298;2022-08-30T14:44:16;5.00;;;2.40;;
43504;SDS011;29098;48.184;16.298;2022-08-30T14:46:43;5.45;;;2.75;;
43504;SDS011;29098;48.184;16.298;2022-08-30T14:49:09;4.15;;;2.47;;
43504;SDS011;29098;48.184;16.298;2022-08-30T14:51:36;9.20;;;3.15;;
43504;SDS011;29098;48.184;16.298;2022-08-30T14:54:02;6.93;;;2.72;;
43504;SDS011;29098;48.184;16.298;2022-08-30T14:56:28;5.25;;;2.47;;
43504;SDS011;29098;48.184;16.298;2022-08-30T14:58:53;4.20;;;2.58;;
43504;SDS011;29098;48.184;16.298;2022-08-30T15:01:24;3.95;;;2.30;;
43504;SDS011;29098;48.184;16.298;2022-08-30T15:03:51;5.32;;;2.33;;
43504;SDS011;29098;48.184;16.298;2022-08-30T15:06:17;4.53;;;2.30;;
43504;SDS011;29098;48.184;16.298;2022-08-30T15:08:42;7.68;;;2.72;;
43504;SDS011;29098;48.184;16.298;2022-08-30T15:11:09;3.58;;;2.15;;
43504;SDS011;29098;48.184;16.298;2022-08-30T15:13:37;5.03;;;2.30;;
43504;SDS011;29098;48.184;16.298;2022-08-30T15:16:08;4.78;;;2.33;;
43504;SDS011;29098;48.184;16.298;2022-08-30T15:18:35;5.25;;;3.10;;
43504;SDS011;29098;48.184;16.298;2022-08-30T15:21:01;5.03;;;2.20;;
43504;SDS011;29098;48.184;16.298;2022-08-30T15:23:27;5.05;;;2.28;;
43504;SDS011;29098;48.184;16.298;2022-08-30T15:25:54;4.78;;;2.83;;
43504;SDS011;29098;48.184;16.298;2022-08-30T15:28:19;4.95;;;2.45;;
43504;SDS011;29098;48.184;16.298;2022-08-30T15:30:45;6.00;;;2.55;;
43504;SDS011;29098;48.184;16.298;2022-08-30T15:33:10;5.97;;;2.55;;
43504;SDS011;29098;48.184;16.298;2022-08-30T15:35:35;6.28;;;2.67;;
43504;SDS011;29098;48.184;16.298;2022-08-30T15:38:01;5.32;;;2.33;;
43504;SDS011;29098;48.184;16.298;2022-08-30T15:40:26;5.78;;;2.67;;
43504;SDS011;29098;48.184;16.298;2022-08-30T15:42:53;4.85;;;2.40;;
43504;SDS011;29098;48.184;16.298;2022-08-30T15:45:19;4.00;;;2.40;;
43504;SDS011;29098;48.184;16.298;2022-08-30T15:47:44;5.03;;;2.58;;
43504;SDS011;29098;48.184;16.298;2022-08-30T15:50:10;7.18;;;2.90;;
43504;SDS011;29098;48.184;16.298;2022-08-30T15:52:35;6.00;;;2.55;;